Time;durP1;ratioP1;P1;durP2;ratioP2;P2;SDS_P1;SDS_P2;PMS_P1;PMS_P2;Temp;Humidity;BMP_temperature;BMP_pressure;BME280_temperature;BME280_humidity;BME280_pressure;Samples;Min_cycle;Max_cycle;Signal;HPM_P1;HPM_P2
2020/12/09 00:00:08;;;;;;;5.35;3.40;;;22.50;48.70;;;;;;5051439;28;45251;-59
2020/12/09 00:02:34;;;;;;;8.10;2.60;;;22.50;48.80;;;;;;5066594;28;46895;-60
2020/12/09 00:05:00;;;;;;;5.45;2.92;;;22.50;48.80;;;;;;5075157;28;45462;-59
2020/12/09 00:07:26;;;;;;;5.95;2.92;;;22.50;48.80;;;;;;5069072;28;45290;-59
2020/12/09 00:09:51;;;;;;;5.55;3.15;;;22.50;48.80;;;;;;5070454;28;45599;-60
2020/12/09 00:12:17;;;;;;;4.60;2.55;;;22.50;48.80;;;;;;5068973;28;47443;-59
2020/12/09 00:14:43;;;;;;;4.78;3.05;;;22.50;48.90;;;;;;5086079;28;45608;-60
2020/12/09 00:17:09;;;;;;;5.65;2.97;;;22.40;48.80;;;;;;5070061;28;45563;-60
2020/12/09 00:19:35;;;;;;;4.57;2.58;;;22.40;48.90;;;;;;5070014;28;45452;-60
2020/12/09 00:22:00;;;;;;;4.22;2.90;;;22.40;48.90;;;;;;5069148;28;45626;-60
2020/12/09 00:24:26;;;;;;;4.10;2.58;;;22.40;49.00;;;;;;5067784;28;45499;-59
2020/12/09 00:26:51;;;;;;;4.70;2.90;;;22.40;49.00;;;;;;5069572;28;45367;-59
2020/12/09 00:29:17;;;;;;;4.60;3.40;;;22.40;49.10;;;;;;5086825;28;45381;-60
2020/12/09 00:31:42;;;;;;;5.15;2.78;;;22.40;49.10;;;;;;5069222;28;46214;-59
2020/12/09 00:34:08;;;;;;;5.05;2.90;;;22.40;49.10;;;;;;5069326;28;45413;-59
2020/12/09 00:36:34;;;;;;;4.07;2.60;;;22.30;49.10;;;;;;5069123;28;45290;-60
2020/12/09 00:39:00;;;;;;;4.35;2.83;;;22.40;49.10;;;;;;5069906;28;45453;-59
2020/12/09 00:41:27;;;;;;;4.38;2.90;;;22.30;49.10;;;;;;5069340;28;45464;-59
2020/12/09 00:43:53;;;;;;;5.35;2.90;;;22.40;49.20;;;;;;5086523;28;46312;-60
2020/12/09 00:46:27;;;;;;;4.22;2.42;;;22.30;49.10;;;;;;5069262;28;45436;-60
2020/12/09 00:48:52;;;;;;;3.90;2.80;;;22.30;49.10;;;;;;5088006;27;46221;-59
2020/12/09 00:51:21;;;;;;;4.28;2.58;;;22.30;49.10;;;;;;5069153;28;46655;-60
2020/12/09 00:53:47;;;;;;;4.30;2.95;;;22.30;49.20;;;;;;5086262;28;45430;-60
2020/12/09 00:56:13;;;;;;;5.10;2.55;;;22.30;49.10;;;;;;5068531;28;45453;-60
2020/12/09 00:58:38;;;;;;;4.45;2.90;;;22.30;49.10;;;;;;5069616;28;45555;-60
2020/12/09 01:01:04;;;;;;;3.80;2.72;;;22.30;49.20;;;;;;5069080;28;46341;-59
2020/12/09 01:03:31;;;;;;;3.92;2.85;;;22.30;49.20;;;;;;5068238;28;45584;-60
2020/12/09 01:05:56;;;;;;;4.07;2.60;;;22.30;49.20;;;;;;5068660;28;45500;-59
2020/12/09 01:08:22;;;;;;;5.00;2.88;;;22.30;49.30;;;;;;5069364;28;45468;-60
2020/12/09 01:10:48;;;;;;;4.15;2.70;;;22.30;49.20;;;;;;5068907;28;45454;-59
2020/12/09 01:13:15;;;;;;;5.55;2.80;;;22.20;49.20;;;;;;5068670;28;45500;-59
2020/12/09 01:15:41;;;;;;;3.45;2.33;;;22.20;49.20;;;;;;5067934;28;45646;-60
2020/12/09 01:18:07;;;;;;;4.40;2.95;;;22.20;49.20;;;;;;5068143;28;45639;-59
2020/12/09 01:20:32;;;;;;;3.72;2.60;;;22.20;49.20;;;;;;5064691;28;46263;-60
2020/12/09 01:22:58;;;;;;;4.80;2.63;;;22.20;49.30;;;;;;5068307;28;45436;-60
2020/12/09 01:25:24;;;;;;;3.50;2.35;;;22.20;49.30;;;;;;5068478;28;45343;-60
2020/12/09 01:27:50;;;;;;;4.40;2.63;;;22.20;49.30;;;;;;5069524;28;45375;-60
2020/12/09 01:30:15;;;;;;;4.35;2.60;;;22.20;49.30;;;;;;5085042;28;47266;-60
2020/12/09 01:32:41;;;;;;;3.58;1.90;;;22.20;49.30;;;;;;5068265;28;45267;-60
2020/12/09 01:35:06;;;;;;;4.57;2.65;;;22.20;49.30;;;;;;5067789;28;45401;-60
2020/12/09 01:37:32;;;;;;;4.20;2.28;;;22.20;49.30;;;;;;5068651;28;45553;-59
2020/12/09 01:39:58;;;;;;;3.88;2.20;;;22.10;49.30;;;;;;5067874;28;45909;-60
2020/12/09 01:42:23;;;;;;;4.35;2.80;;;22.20;49.40;;;;;;5066915;28;45413;-60
2020/12/09 01:44:49;;;;;;;4.55;2.50;;;22.10;49.30;;;;;;5085602;28;45362;-60
2020/12/09 01:47:14;;;;;;;5.35;2.40;;;22.10;49.40;;;;;;5085471;28;46603;-60
2020/12/09 01:49:40;;;;;;;3.63;2.45;;;22.10;49.30;;;;;;5068044;28;45428;-60
2020/12/09 01:52:06;;;;;;;5.03;2.65;;;22.10;49.40;;;;;;5068318;28;45371;-60
2020/12/09 01:54:32;;;;;;;4.13;2.50;;;22.10;49.40;;;;;;5067537;28;45423;-60
2020/12/09 01:57:15;;;;;;;4.20;2.65;;;22.10;49.40;;;;;;5085965;28;47120;-60
2020/12/09 01:59:41;;;;;;;4.07;2.33;;;22.10;49.40;;;;;;5082981;28;47003;-59
2020/12/09 02:02:07;;;;;;;3.30;2.33;;;22.10;49.50;;;;;;5068512;28;45638;-60
2020/12/09 02:04:33;;;;;;;4.80;2.45;;;22.10;49.50;;;;;;5068200;28;45353;-60
2020/12/09 02:06:59;;;;;;;4.25;2.63;;;22.10;49.50;;;;;;5068869;28;45508;-60
2020/12/09 02:09:25;;;;;;;3.63;2.17;;;22.10;49.50;;;;;;5067176;28;47005;-60
2020/12/09 02:11:51;;;;;;;4.15;2.58;;;22.00;49.40;;;;;;5084937;28;45442;-60
2020/12/09 02:14:17;;;;;;;4.28;2.70;;;22.10;49.50;;;;;;5066846;28;45453;-60
2020/12/09 02:16:46;;;;;;;4.18;2.53;;;22.10;49.50;;;;;;5068586;28;45366;-59
2020/12/09 02:19:12;;;;;;;4.03;2.85;;;22.10;49.50;;;;;;5088114;28;47066;-59
2020/12/09 02:21:37;;;;;;;5.10;2.35;;;22.10;49.50;;;;;;5071029;28;45465;-59
2020/12/09 02:24:03;;;;;;;4.28;2.50;;;22.00;49.50;;;;;;5071443;28;45486;-59
2020/12/09 02:26:29;;;;;;;3.67;2.28;;;22.00;49.50;;;;;;5071900;28;45559;-59
2020/12/09 02:28:55;;;;;;;4.00;2.22;;;22.00;49.50;;;;;;5089148;27;46300;-58
2020/12/09 02:31:21;;;;;;;4.03;2.35;;;22.00;49.50;;;;;;5069913;28;45362;-58
2020/12/09 02:33:46;;;;;;;3.67;2.58;;;22.00;49.50;;;;;;5088656;28;45377;-60
2020/12/09 02:36:12;;;;;;;4.25;2.55;;;22.00;49.50;;;;;;5071098;28;45348;-60
2020/12/09 02:38:37;;;;;;;3.47;2.35;;;22.00;49.50;;;;;;5071149;28;45518;-60
2020/12/09 02:41:03;;;;;;;3.80;2.33;;;22.00;49.50;;;;;;5089598;27;45452;-60
2020/12/09 02:43:29;;;;;;;3.58;2.45;;;22.00;49.50;;;;;;5070871;28;45489;-59
2020/12/09 02:45:55;;;;;;;4.03;2.40;;;22.00;49.50;;;;;;5071374;28;46658;-59
2020/12/09 02:48:21;;;;;;;3.97;2.50;;;22.00;49.50;;;;;;5071485;28;47169;-60
2020/12/09 02:50:46;;;;;;;4.50;2.83;;;22.00;49.50;;;;;;5068718;28;45747;-59
2020/12/09 02:53:12;;;;;;;4.10;2.40;;;22.00;49.50;;;;;;5071024;28;45326;-60
2020/12/09 02:55:37;;;;;;;4.35;2.83;;;22.00;49.40;;;;;;5071134;28;45471;-60
2020/12/09 02:58:03;;;;;;;4.55;2.85;;;21.90;49.40;;;;;;5069138;28;46263;-60
2020/12/09 03:00:29;;;;;;;4.63;2.53;;;21.90;49.40;;;;;;5070814;28;45396;-60
2020/12/09 03:02:54;;;;;;;4.00;2.17;;;21.90;49.40;;;;;;5070996;28;45466;-60
2020/12/09 03:05:20;;;;;;;4.43;2.95;;;21.90;49.40;;;;;;5071567;28;45450;-60
2020/12/09 03:07:46;;;;;;;5.28;3.20;;;22.00;49.40;;;;;;5087758;28;47034;-59
2020/12/09 03:10:11;;;;;;;3.30;2.40;;;22.00;49.30;;;;;;5088021;28;45475;-60
2020/12/09 03:12:37;;;;;;;4.53;3.05;;;22.10;49.20;;;;;;5070437;28;45522;-59
2020/12/09 03:15:03;;;;;;;3.90;2.40;;;22.10;49.20;;;;;;5071443;28;45416;-60
2020/12/09 03:17:28;;;;;;;4.63;2.85;;;22.10;49.20;;;;;;5070238;28;46400;-60
2020/12/09 03:19:55;;;;;;;3.88;2.63;;;22.20;49.20;;;;;;5087339;28;45455;-60
2020/12/09 03:22:21;;;;;;;3.60;2.53;;;22.20;49.10;;;;;;5071132;28;45516;-60
2020/12/09 03:24:46;;;;;;;3.75;2.38;;;22.20;49.00;;;;;;5070628;28;45674;-60
2020/12/09 03:27:12;;;;;;;4.07;2.65;;;22.20;48.90;;;;;;5086775;28;47183;-60
2020/12/09 03:29:38;;;;;;;4.38;2.58;;;22.20;48.90;;;;;;5069593;28;45465;-60
2020/12/09 03:32:04;;;;;;;3.53;1.92;;;22.30;49.00;;;;;;5070540;28;45337;-60
2020/12/09 03:34:29;;;;;;;4.28;2.50;;;22.30;48.90;;;;;;5087382;28;45441;-60
2020/12/09 03:36:55;;;;;;;4.00;2.30;;;22.40;48.80;;;;;;5069349;28;45284;-59
2020/12/09 03:39:21;;;;;;;3.67;2.10;;;22.40;48.80;;;;;;5070536;28;45413;-60
2020/12/09 03:41:46;;;;;;;3.80;2.35;;;22.40;48.70;;;;;;5088536;27;45404;-59
2020/12/09 03:44:12;;;;;;;3.92;2.40;;;22.50;48.80;;;;;;5070833;28;45594;-59
2020/12/09 03:46:37;;;;;;;4.10;2.38;;;22.40;48.60;;;;;;5088379;27;46371;-59
2020/12/09 03:49:03;;;;;;;4.28;2.42;;;22.50;48.70;;;;;;5084536;28;45534;-60
2020/12/09 03:51:29;;;;;;;4.38;2.75;;;22.50;48.70;;;;;;5087178;28;45307;-60
2020/12/09 03:53:54;;;;;;;6.00;2.97;;;22.40;48.70;;;;;;5087710;28;45633;-61
2020/12/09 03:56:20;;;;;;;4.70;2.30;;;22.50;48.70;;;;;;5069188;28;45512;-60
2020/12/09 03:58:45;;;;;;;3.92;2.08;;;22.50;48.80;;;;;;5068514;28;45413;-61
2020/12/09 04:01:11;;;;;;;3.60;2.20;;;22.40;48.60;;;;;;5086197;28;45261;-61
2020/12/09 04:03:37;;;;;;;3.22;2.08;;;22.40;49.10;;;;;;5088471;27;45376;-60
2020/12/09 04:06:02;;;;;;;4.68;2.67;;;22.40;48.50;;;;;;5068042;28;46402;-60
2020/12/09 04:08:28;;;;;;;4.05;2.25;;;22.40;48.50;;;;;;5069807;28;45347;-61
2020/12/09 04:10:53;;;;;;;4.03;2.30;;;22.50;48.50;;;;;;5065132;28;45597;-61
2020/12/09 04:13:19;;;;;;;3.75;2.30;;;22.60;48.40;;;;;;5085855;28;45477;-61
2020/12/09 04:15:45;;;;;;;4.85;2.75;;;22.60;48.40;;;;;;5065928;28;47027;-60
2020/12/09 04:18:10;;;;;;;4.30;2.70;;;22.70;48.40;;;;;;5068279;28;46032;-60
2020/12/09 04:20:36;;;;;;;3.95;2.40;;;22.60;48.20;;;;;;5066078;28;45495;-60
2020/12/09 04:23:02;;;;;;;3.75;2.20;;;22.60;48.10;;;;;;5084278;28;45419;-60
2020/12/09 04:25:28;;;;;;;4.05;2.50;;;22.70;48.10;;;;;;5086760;28;45416;-60
2020/12/09 04:27:53;;;;;;;3.80;2.22;;;22.70;48.00;;;;;;5068232;28;45327;-59
2020/12/09 04:30:19;;;;;;;3.72;2.35;;;22.70;48.00;;;;;;5087447;27;45190;-60
2020/12/09 04:32:44;;;;;;;3.63;2.35;;;22.80;48.00;;;;;;5066695;28;45575;-60
2020/12/09 04:35:10;;;;;;;3.72;2.55;;;22.80;48.00;;;;;;5067951;28;45939;-59
2020/12/09 04:37:36;;;;;;;3.80;2.65;;;22.80;48.00;;;;;;5079696;28;45487;-60
2020/12/09 04:40:02;;;;;;;3.30;2.30;;;22.80;48.00;;;;;;5082124;27;45432;-59
2020/12/09 04:42:28;;;;;;;3.58;2.47;;;22.80;48.00;;;;;;5068395;28;45485;-60
2020/12/09 04:44:53;;;;;;;4.43;2.40;;;22.80;47.90;;;;;;5068712;28;45376;-60
2020/12/09 04:47:29;;;;;;;4.22;2.33;;;22.90;47.90;;;;;;5068759;28;45451;-60
2020/12/09 04:50:07;;;;;;;3.47;2.45;;;22.90;47.80;;;;;;5084962;28;45480;-59
2020/12/09 04:52:46;;;;;;;4.00;2.35;;;22.90;47.90;;;;;;5085351;28;45281;-59
2020/12/09 04:55:16;;;;;;;3.47;2.35;;;22.90;47.80;;;;;;5067551;28;46140;-60
2020/12/09 04:58:11;;;;;;;3.67;2.35;;;22.90;47.80;;;;;;5085820;28;45573;-59
2020/12/09 05:00:36;;;;;;;4.03;2.25;;;22.90;47.80;;;;;;5053344;28;45289;-60
2020/12/09 05:03:19;;;;;;;3.83;2.42;;;22.90;47.80;;;;;;5067930;28;45359;-60
2020/12/09 05:05:46;;;;;;;4.07;2.40;;;23.00;47.70;;;;;;5084897;28;46290;-60
2020/12/09 05:08:13;;;;;;;4.07;2.65;;;22.90;47.70;;;;;;5068327;28;45342;-60
2020/12/09 05:10:48;;;;;;;3.92;2.40;;;23.00;47.80;;;;;;5085802;27;45413;-60
2020/12/09 05:13:23;;;;;;;3.67;2.22;;;23.00;47.80;;;;;;5085385;28;45485;-60
2020/12/09 05:15:56;;;;;;;4.07;2.45;;;23.00;48.40;;;;;;5087385;27;46922;-60
2020/12/09 05:18:36;;;;;;;3.42;2.30;;;23.00;47.80;;;;;;5085316;28;45373;-59
2020/12/09 05:21:25;;;;;;;4.30;2.67;;;23.10;47.90;;;;;;5086046;28;45539;-59
2020/12/09 05:23:58;;;;;;;3.72;2.90;;;23.00;47.60;;;;;;5070860;28;45350;-59
2020/12/09 05:26:25;;;;;;;5.03;3.45;;;23.00;46.70;;;;;;5064996;28;46305;-59
2020/12/09 05:29:11;;;;;;;6.00;4.03;;;23.00;46.00;;;;;;5068533;28;45417;-58
2020/12/09 05:31:38;;;;;;;7.43;4.75;;;23.00;44.40;;;;;;5083221;28;45757;-58
2020/12/09 05:34:23;;;;;;;7.32;4.35;;;23.00;44.80;;;;;;5066050;28;45517;-58
2020/12/09 05:36:49;;;;;;;8.57;4.82;;;22.90;43.70;;;;;;5084637;27;46495;-60
2020/12/09 05:39:14;;;;;;;6.60;4.88;;;22.90;43.70;;;;;;5065814;28;45381;-59
2020/12/09 05:41:40;;;;;;;5.95;4.50;;;22.90;43.60;;;;;;5085150;28;45424;-60
2020/12/09 05:44:06;;;;;;;6.60;5.07;;;22.90;43.40;;;;;;5067256;28;45465;-59
2020/12/09 05:46:31;;;;;;;7.88;4.10;;;22.90;43.80;;;;;;5084638;28;46855;-60
2020/12/09 05:48:57;;;;;;;5.90;4.03;;;22.90;44.30;;;;;;5084580;28;45316;-60
2020/12/09 05:51:23;;;;;;;6.15;4.20;;;23.00;44.30;;;;;;5068219;28;45433;-58
2020/12/09 05:53:49;;;;;;;8.63;4.50;;;23.00;44.80;;;;;;5070776;28;46572;-58
2020/12/09 05:56:26;;;;;;;9.13;3.65;;;23.00;44.60;;;;;;5069179;28;46346;-59
2020/12/09 05:58:52;;;;;;;6.15;4.75;;;23.10;44.60;;;;;;5087715;28;45373;-59
2020/12/09 06:01:26;;;;;;;5.10;3.63;;;23.10;44.30;;;;;;5087146;28;45521;-59
2020/12/09 06:03:52;;;;;;;6.07;4.32;;;23.10;44.00;;;;;;5086859;28;45594;-58
2020/12/09 06:06:28;;;;;;;8.00;4.47;;;23.10;44.00;;;;;;5086772;28;46376;-58
2020/12/09 06:08:55;;;;;;;6.30;4.15;;;23.10;43.90;;;;;;5086400;28;45570;-58
2020/12/09 06:11:22;;;;;;;7.40;3.92;;;23.20;44.20;;;;;;5083286;28;45552;-58
2020/12/09 06:13:48;;;;;;;5.93;4.05;;;23.20;44.60;;;;;;5080014;28;45569;-59
2020/12/09 06:16:17;;;;;;;4.97;3.72;;;23.20;44.90;;;;;;5080708;28;45499;-59
2020/12/09 06:18:44;;;;;;;5.68;4.00;;;23.20;45.10;;;;;;5084778;27;45468;-59
2020/12/09 06:21:10;;;;;;;7.18;4.45;;;23.20;45.30;;;;;;5085788;28;45533;-59
2020/12/09 06:23:35;;;;;;;10.20;5.90;;;23.20;45.40;;;;;;5070829;28;45316;-59
2020/12/09 06:26:02;;;;;;;10.70;6.25;;;23.20;43.90;;;;;;5086929;28;45517;-59
2020/12/09 06:28:30;;;;;;;9.70;6.68;;;23.00;41.40;;;;;;5087942;28;45488;-59
2020/12/09 06:30:57;;;;;;;8.20;6.63;;;22.90;40.70;;;;;;5087793;28;45467;-59
2020/12/09 06:33:33;;;;;;;9.20;6.90;;;22.90;40.30;;;;;;5070806;28;45673;-59
2020/12/09 06:36:21;;;;;;;7.70;6.03;;;22.80;39.40;;;;;;5069472;28;47011;-58
2020/12/09 06:39:15;;;;;;;17.17;7.18;;;22.70;39.50;;;;;;5086656;28;45401;-59
2020/12/09 06:41:47;;;;;;;9.23;6.25;;;22.70;40.60;;;;;;5094614;27;45858;-59
2020/12/09 06:44:16;;;;;;;9.02;4.95;;;22.80;41.80;;;;;;5085997;27;45579;-56
2020/12/09 06:46:48;;;;;;;12.35;5.75;;;22.90;42.60;;;;;;5067543;28;47171;-62
2020/12/09 06:49:33;;;;;;;10.45;5.53;;;23.00;42.70;;;;;;5083136;27;46948;-59
2020/12/09 06:52:01;;;;;;;8.33;4.97;;;23.20;43.10;;;;;;5087393;28;45930;-59
2020/12/09 06:54:50;;;;;;;11.27;4.50;;;23.20;43.20;;;;;;5087376;27;45450;-59
2020/12/09 06:57:16;;;;;;;10.30;5.15;;;23.30;43.70;;;;;;5070647;28;46169;-59
2020/12/09 06:59:42;;;;;;;8.43;4.90;;;23.30;44.10;;;;;;5076275;28;45590;-59
2020/12/09 07:02:08;;;;;;;9.50;5.40;;;23.40;43.90;;;;;;5069508;28;45529;-58
2020/12/09 07:04:52;;;;;;;10.70;4.50;;;23.50;44.10;;;;;;5080136;27;45624;-61
2020/12/09 07:07:42;;;;;;;7.00;4.28;;;23.60;44.30;;;;;;5087108;28;46075;-61
2020/12/09 07:10:12;;;;;;;9.52;5.10;;;23.60;44.40;;;;;;5086270;28;45489;-60
2020/12/09 07:12:38;;;;;;;11.75;5.10;;;23.60;44.70;;;;;;5086214;28;45424;-60
2020/12/09 07:15:04;;;;;;;10.48;4.38;;;23.70;45.20;;;;;;5084063;28;45502;-58
2020/12/09 07:17:31;;;;;;;12.55;4.68;;;23.80;45.00;;;;;;5086599;28;46998;-55
2020/12/09 07:19:57;;;;;;;10.50;5.20;;;23.90;45.10;;;;;;5067838;28;45661;-55
2020/12/09 07:22:23;;;;;;;11.60;4.95;;;24.00;44.90;;;;;;5069963;27;45541;-55
2020/12/09 07:24:49;;;;;;;14.20;4.88;;;24.00;44.90;;;;;;5069721;28;46202;-55
2020/12/09 07:27:15;;;;;;;8.90;4.00;;;24.10;44.90;;;;;;5087232;28;45474;-55
2020/12/09 07:29:41;;;;;;;9.32;3.63;;;24.10;44.90;;;;;;5070093;28;45509;-57
2020/12/09 07:32:07;;;;;;;8.23;3.85;;;24.30;45.50;;;;;;5069122;28;45422;-59
2020/12/09 07:34:34;;;;;;;8.48;4.60;;;24.30;44.90;;;;;;5068660;28;45568;-61
2020/12/09 07:37:00;;;;;;;6.95;3.85;;;24.40;45.00;;;;;;5068605;28;45381;-59
2020/12/09 07:39:32;;;;;;;10.15;4.43;;;24.40;44.90;;;;;;5081641;28;45361;-58
2020/12/09 07:42:01;;;;;;;8.02;3.78;;;24.50;45.00;;;;;;5067880;28;45464;-59
2020/12/09 07:44:27;;;;;;;8.73;4.40;;;24.50;45.00;;;;;;5088267;27;45507;-57
2020/12/09 07:46:56;;;;;;;7.95;4.38;;;24.50;45.40;;;;;;5067005;28;45390;-54
2020/12/09 07:49:22;;;;;;;8.38;3.97;;;24.60;45.20;;;;;;5072650;28;45436;-57
2020/12/09 07:51:48;;;;;;;6.53;4.07;;;24.60;45.20;;;;;;5057829;28;45470;-58
2020/12/09 07:54:14;;;;;;;9.80;4.10;;;24.60;45.10;;;;;;5068099;28;45499;-56
2020/12/09 07:56:40;;;;;;;7.65;3.47;;;24.60;45.10;;;;;;5084409;28;46470;-57
2020/12/09 07:59:05;;;;;;;8.15;3.83;;;24.60;45.10;;;;;;5067710;28;45472;-57
2020/12/09 08:01:31;;;;;;;6.97;3.47;;;24.70;45.20;;;;;;5085710;27;45454;-59
2020/12/09 08:03:57;;;;;;;9.55;3.80;;;24.70;45.20;;;;;;5069690;28;45518;-60
2020/12/09 08:06:22;;;;;;;7.85;3.50;;;24.60;45.20;;;;;;5068514;28;45518;-59
2020/12/09 08:08:50;;;;;;;7.10;3.45;;;24.60;45.30;;;;;;5064534;28;45434;-60
2020/12/09 08:11:16;;;;;;;7.22;3.47;;;24.50;45.30;;;;;;5086697;28;46160;-55
2020/12/09 08:13:42;;;;;;;7.75;3.53;;;24.50;45.40;;;;;;5065476;28;45372;-56
2020/12/09 08:16:12;;;;;;;7.88;4.03;;;24.60;45.60;;;;;;5085013;27;45489;-58
2020/12/09 08:18:42;;;;;;;5.82;3.55;;;24.70;45.40;;;;;;5066736;28;45353;-58
2020/12/09 08:21:10;;;;;;;8.15;4.10;;;24.80;45.30;;;;;;5086546;28;45433;-56
2020/12/09 08:23:46;;;;;;;4.90;3.45;;;24.90;45.10;;;;;;5067715;28;45570;-58
2020/12/09 08:26:12;;;;;;;5.85;3.35;;;24.90;44.90;;;;;;5068753;28;46507;-58
2020/12/09 08:28:38;;;;;;;5.45;3.47;;;24.90;44.80;;;;;;5082738;28;45608;-57
2020/12/09 08:31:14;;;;;;;7.63;3.63;;;25.00;44.80;;;;;;5085617;28;46382;-57
2020/12/09 08:33:40;;;;;;;7.43;3.45;;;25.10;44.80;;;;;;5082940;28;45388;-58
2020/12/09 08:36:09;;;;;;;3.65;2.70;;;25.00;44.70;;;;;;5068092;28;46394;-57
2020/12/09 08:38:59;;;;;;;5.28;3.25;;;25.00;44.80;;;;;;5068989;28;45357;-55
2020/12/09 08:41:26;;;;;;;6.13;3.42;;;25.10;44.80;;;;;;5078129;28;45536;-56
2020/12/09 08:43:57;;;;;;;7.57;3.42;;;25.10;44.70;;;;;;5086002;27;45467;-56
2020/12/09 08:46:24;;;;;;;5.90;3.42;;;25.20;44.60;;;;;;5066005;28;46456;-56
2020/12/09 08:48:50;;;;;;;5.80;3.63;;;25.20;44.60;;;;;;5069057;28;45407;-55
2020/12/09 08:51:15;;;;;;;6.05;3.10;;;25.20;44.60;;;;;;5068821;28;45601;-55
2020/12/09 08:53:41;;;;;;;7.18;3.42;;;25.20;44.60;;;;;;5069160;28;45594;-58
2020/12/09 08:56:07;;;;;;;5.78;3.40;;;25.20;44.70;;;;;;5067403;28;45487;-58
2020/12/09 08:58:33;;;;;;;7.53;3.78;;;25.10;44.70;;;;;;5068620;28;45468;-61
2020/12/09 09:00:59;;;;;;;6.35;3.30;;;25.10;44.80;;;;;;5068285;28;45372;-61
2020/12/09 09:03:26;;;;;;;6.85;3.58;;;24.90;45.10;;;;;;5068100;28;45303;-60
2020/12/09 09:05:56;;;;;;;7.22;3.97;;;24.80;45.30;;;;;;5084694;28;46311;-60
2020/12/09 09:08:22;;;;;;;7.30;3.30;;;24.70;45.60;;;;;;5066978;28;45533;-57
2020/12/09 09:10:47;;;;;;;7.30;3.40;;;24.70;45.90;;;;;;5066744;28;45574;-55
2020/12/09 09:13:13;;;;;;;5.72;3.50;;;25.00;45.60;;;;;;5068876;28;45595;-54
2020/12/09 09:15:39;;;;;;;5.70;3.40;;;25.20;45.40;;;;;;5068355;28;46967;-56
2020/12/09 09:18:05;;;;;;;4.72;2.90;;;25.30;45.20;;;;;;5066577;28;45344;-56
2020/12/09 09:20:31;;;;;;;6.78;3.53;;;25.40;45.20;;;;;;5067652;28;45472;-55
2020/12/09 09:22:57;;;;;;;5.93;3.17;;;25.50;45.10;;;;;;5069249;28;45515;-54
2020/12/09 09:25:23;;;;;;;5.80;3.45;;;25.50;44.90;;;;;;5068176;28;46194;-59
2020/12/09 09:27:49;;;;;;;4.70;2.88;;;25.50;45.00;;;;;;5067096;28;45367;-60
2020/12/09 09:30:14;;;;;;;5.47;3.40;;;25.50;44.90;;;;;;5068977;28;45483;-60
2020/12/09 09:32:40;;;;;;;6.03;3.53;;;25.50;44.90;;;;;;5068871;28;45394;-59
2020/12/09 09:35:06;;;;;;;5.70;3.20;;;25.40;45.00;;;;;;5066199;28;45448;-60
2020/12/09 09:37:32;;;;;;;5.22;3.10;;;25.40;45.00;;;;;;5065387;28;45495;-62
2020/12/09 09:39:58;;;;;;;4.63;3.28;;;25.40;45.00;;;;;;5068134;28;45556;-60
2020/12/09 09:42:23;;;;;;;6.68;3.05;;;25.50;44.90;;;;;;5064754;28;45543;-60
2020/12/09 09:44:50;;;;;;;5.78;3.17;;;25.50;44.90;;;;;;5067345;28;46283;-60
2020/12/09 09:47:16;;;;;;;6.32;3.40;;;25.50;45.00;;;;;;5084455;28;45500;-57
2020/12/09 09:49:41;;;;;;;5.15;2.83;;;25.40;45.10;;;;;;5067309;28;45559;-59
2020/12/09 09:52:07;;;;;;;4.75;3.20;;;25.40;45.10;;;;;;5068828;28;45566;-59
2020/12/09 09:54:33;;;;;;;5.43;3.10;;;25.40;45.20;;;;;;5065509;28;46920;-59
2020/12/09 09:56:59;;;;;;;5.15;2.90;;;25.40;45.20;;;;;;5067433;28;45430;-62
2020/12/09 09:59:24;;;;;;;5.82;3.03;;;25.40;45.10;;;;;;5066114;28;45379;-62
2020/12/09 10:01:54;;;;;;;6.35;3.35;;;25.20;45.30;;;;;;5079078;28;45864;-61
2020/12/09 10:04:20;;;;;;;7.47;3.70;;;25.10;45.50;;;;;;5066624;28;46945;-61
2020/12/09 10:06:46;;;;;;;6.70;3.90;;;25.10;45.70;;;;;;5066322;28;45739;-61
2020/12/09 10:09:11;;;;;;;8.48;2.97;;;25.00;45.90;;;;;;5079448;28;45594;-60
2020/12/09 10:11:40;;;;;;;6.43;3.22;;;24.90;46.20;;;;;;5065224;28;45399;-59
2020/12/09 10:14:06;;;;;;;5.75;3.10;;;25.10;46.00;;;;;;5081046;28;46411;-60
2020/12/09 10:16:32;;;;;;;7.95;3.70;;;25.20;46.00;;;;;;5066640;28;46291;-59
2020/12/09 10:18:59;;;;;;;5.93;3.08;;;25.20;45.90;;;;;;5066524;28;45767;-58
2020/12/09 10:21:29;;;;;;;7.78;3.17;;;25.30;45.70;;;;;;5066820;28;45540;-60
2020/12/09 10:23:55;;;;;;;5.32;2.72;;;25.30;45.60;;;;;;5082703;28;47043;-59
2020/12/09 10:26:31;;;;;;;6.57;3.33;;;25.30;45.60;;;;;;5067483;28;45449;-58
2020/12/09 10:29:00;;;;;;;5.32;3.33;;;25.30;45.60;;;;;;5081105;27;45530;-59
2020/12/09 10:31:31;;;;;;;7.35;3.05;;;25.30;45.70;;;;;;5064004;28;45681;-63
2020/12/09 10:33:57;;;;;;;6.93;3.60;;;25.20;45.90;;;;;;5073017;28;47476;-60
2020/12/09 10:36:23;;;;;;;5.03;2.97;;;25.10;46.00;;;;;;5067096;28;45622;-60
2020/12/09 10:38:49;;;;;;;4.93;3.08;;;24.90;46.30;;;;;;5068110;28;45411;-59
2020/12/09 10:41:14;;;;;;;10.35;3.10;;;24.90;46.60;;;;;;5071311;28;45529;-60
2020/12/09 10:43:40;;;;;;;4.93;2.65;;;24.80;46.90;;;;;;5069067;28;47183;-59
2020/12/09 10:46:06;;;;;;;7.75;3.53;;;24.70;46.90;;;;;;5065852;28;45721;-59
2020/12/09 10:48:31;;;;;;;6.35;3.22;;;24.70;47.60;;;;;;5068969;28;45413;-60
2020/12/09 10:50:57;;;;;;;6.05;3.25;;;24.60;47.30;;;;;;5071236;28;45484;-57
2020/12/09 10:53:23;;;;;;;7.25;2.92;;;24.50;47.40;;;;;;5070643;28;46561;-60
2020/12/09 10:55:48;;;;;;;7.30;3.78;;;24.70;47.30;;;;;;5069536;28;45516;-63
2020/12/09 10:58:14;;;;;;;7.53;2.90;;;24.60;47.70;;;;;;5069820;28;45541;-65
2020/12/09 11:00:40;;;;;;;6.40;3.00;;;24.70;47.40;;;;;;5087898;28;45628;-60
2020/12/09 11:03:05;;;;;;;6.05;3.22;;;24.80;47.10;;;;;;5068879;28;47137;-60
2020/12/09 11:05:31;;;;;;;5.05;2.95;;;24.80;47.00;;;;;;5068535;28;45476;-57
2020/12/09 11:07:56;;;;;;;6.57;3.72;;;24.90;46.90;;;;;;5070342;28;45722;-59
2020/12/09 11:10:22;;;;;;;8.18;3.35;;;24.90;46.70;;;;;;5068693;28;45596;-60
2020/12/09 11:12:48;;;;;;;9.15;3.30;;;24.80;46.80;;;;;;5070473;28;47185;-56
2020/12/09 11:15:13;;;;;;;5.45;3.20;;;24.50;47.40;;;;;;5068384;28;45514;-57
2020/12/09 11:17:39;;;;;;;6.13;3.58;;;24.60;47.40;;;;;;5069957;28;45551;-58
2020/12/09 11:20:05;;;;;;;6.25;3.45;;;24.60;47.20;;;;;;5069892;28;45468;-59
2020/12/09 11:22:30;;;;;;;7.28;4.28;;;24.70;46.80;;;;;;5069730;28;46308;-60
2020/12/09 11:24:56;;;;;;;8.40;4.47;;;24.70;46.60;;;;;;5085803;28;45556;-60
2020/12/09 11:27:21;;;;;;;7.60;4.50;;;24.70;46.20;;;;;;5069420;28;46402;-62
2020/12/09 11:29:47;;;;;;;10.73;4.90;;;24.80;45.80;;;;;;5070650;28;45664;-62
2020/12/09 11:32:13;;;;;;;10.20;5.28;;;24.70;45.50;;;;;;5086097;28;45874;-62
2020/12/09 11:34:39;;;;;;;8.27;4.53;;;24.70;45.20;;;;;;5068928;28;45243;-60
2020/12/09 11:37:04;;;;;;;7.35;4.93;;;24.80;45.10;;;;;;5085831;28;45288;-61
2020/12/09 11:39:30;;;;;;;8.38;4.25;;;24.80;45.00;;;;;;5087150;28;45423;-62
2020/12/09 11:41:59;;;;;;;6.00;4.15;;;24.70;44.80;;;;;;5068793;28;46035;-61
2020/12/09 11:44:25;;;;;;;11.10;5.00;;;24.70;44.80;;;;;;5067638;28;45346;-60
2020/12/09 11:46:51;;;;;;;9.57;5.68;;;24.60;44.80;;;;;;5069654;28;45515;-62
2020/12/09 11:49:17;;;;;;;7.85;5.38;;;24.50;45.00;;;;;;5069378;28;45495;-61
2020/12/09 11:51:43;;;;;;;9.35;4.90;;;24.30;44.90;;;;;;5086793;28;47011;-59
2020/12/09 11:54:09;;;;;;;8.68;5.03;;;24.10;45.20;;;;;;5084211;28;45405;-57
2020/12/09 11:56:34;;;;;;;14.35;5.20;;;24.10;45.30;;;;;;5070169;28;45461;-58
2020/12/09 11:59:00;;;;;;;7.60;3.92;;;24.00;45.70;;;;;;5070132;28;45274;-57
2020/12/09 12:01:26;;;;;;;8.38;4.45;;;23.90;46.80;;;;;;5066738;28;45713;-58
2020/12/09 12:03:52;;;;;;;9.70;4.88;;;23.80;46.80;;;;;;5068090;28;45464;-57
2020/12/09 12:06:22;;;;;;;7.80;4.55;;;23.70;47.10;;;;;;5086587;28;45475;-58
2020/12/09 12:08:49;;;;;;;8.98;4.57;;;23.70;47.40;;;;;;5086997;28;45316;-58
2020/12/09 12:11:16;;;;;;;7.20;4.25;;;23.70;47.50;;;;;;5068138;28;45380;-57
2020/12/09 12:13:41;;;;;;;7.30;4.75;;;23.70;47.70;;;;;;5069646;28;45293;-57
2020/12/09 12:16:14;;;;;;;6.93;4.20;;;23.60;47.70;;;;;;5069502;28;45573;-58
2020/12/09 12:18:40;;;;;;;7.93;3.80;;;23.60;47.90;;;;;;5088047;27;45575;-58
2020/12/09 12:21:05;;;;;;;6.82;4.07;;;23.60;47.90;;;;;;5069489;28;45524;-56
2020/12/09 12:23:31;;;;;;;7.80;4.57;;;23.60;48.10;;;;;;5067444;28;45316;-57
2020/12/09 12:25:57;;;;;;;5.90;3.90;;;23.60;48.10;;;;;;5068849;28;46001;-57
2020/12/09 12:28:24;;;;;;;5.47;3.83;;;23.50;48.20;;;;;;5069590;28;45285;-57
2020/12/09 12:30:50;;;;;;;5.88;3.65;;;23.50;48.20;;;;;;5069790;28;46182;-57
2020/12/09 12:33:16;;;;;;;7.32;3.60;;;23.60;48.20;;;;;;5067788;28;45874;-57
2020/12/09 12:35:42;;;;;;;7.05;3.83;;;23.50;48.20;;;;;;5068388;28;45401;-57
2020/12/09 12:38:08;;;;;;;6.15;4.15;;;23.60;48.30;;;;;;5070040;28;45482;-58
2020/12/09 12:40:33;;;;;;;7.10;3.85;;;23.60;48.40;;;;;;5067567;28;47040;-57
2020/12/09 12:42:59;;;;;;;8.55;3.63;;;23.50;48.30;;;;;;5068060;28;45239;-58
2020/12/09 12:45:25;;;;;;;8.88;4.53;;;23.50;48.50;;;;;;5068180;28;45440;-57